createdAt,value
2023-04-05T00:01:43.988Z,93.80
2023-04-05T00:04:15.172Z,94.50
2023-04-05T00:06:44.018Z,95.90
2023-04-05T00:09:18.834Z,95.00
2023-04-05T00:11:50.493Z,95.00
2023-04-05T00:14:20.814Z,94.80
2023-04-05T00:16:49.100Z,95.30
2023-04-05T00:19:25.283Z,95.90
2023-04-05T00:21:54.929Z,97.20
2023-04-05T00:24:23.277Z,95.80
2023-04-05T00:27:01.369Z,96.60
2023-04-05T00:29:38.230Z,96.10
2023-04-05T00:32:08.837Z,95.90
2023-04-05T00:34:38.844Z,95.30
2023-04-05T00:37:06.960Z,96.00
2023-04-05T00:39:34.983Z,97.20
2023-04-05T00:42:06.101Z,97.50
2023-04-05T00:44:36.703Z,97.00
2023-04-05T00:47:09.350Z,96.50
2023-04-05T00:49:38.945Z,96.40
2023-04-05T00:52:07.059Z,97.00
2023-04-05T00:54:37.232Z,97.50
2023-04-05T00:57:07.249Z,97.80
2023-04-05T00:59:41.200Z,97.70
2023-04-05T01:02:18.665Z,98.40
2023-04-05T01:04:59.388Z,98.90
2023-04-05T01:07:44.207Z,99.90
2023-04-05T01:10:14.868Z,99.50
2023-04-05T01:12:45.187Z,99.60
2023-04-05T01:15:13.055Z,99.90
2023-04-05T01:17:42.349Z,99.90
2023-04-05T01:20:12.902Z,99.90
2023-04-05T01:23:25.979Z,99.90
2023-04-05T01:26:12.263Z,99.90
2023-04-05T01:28:49.284Z,99.90
2023-04-05T01:31:29.552Z,99.90
2023-04-05T01:34:07.989Z,99.90
2023-04-05T01:36:50.738Z,99.90
2023-04-05T01:39:21.469Z,99.90
2023-04-05T01:41:49.224Z,99.90
2023-04-05T01:44:17.022Z,99.90
2023-04-05T01:46:45.001Z,99.90
2023-04-05T01:49:14.695Z,99.90
2023-04-05T01:51:49.888Z,99.90
2023-04-05T01:54:18.131Z,99.90
2023-04-05T01:56:48.657Z,99.90
2023-04-05T01:59:21.426Z,99.90
2023-04-05T02:01:53.745Z,99.90
2023-04-05T02:04:23.741Z,99.90
2023-04-05T02:06:53.226Z,99.90
2023-04-05T02:09:25.761Z,99.90
2023-04-05T02:11:56.409Z,99.90
2023-04-05T02:14:26.228Z,99.90
2023-04-05T02:17:03.320Z,99.90
2023-04-05T02:19:58.104Z,99.90
2023-04-05T02:22:32.092Z,99.90
2023-04-05T02:25:04.924Z,99.90
2023-04-05T02:27:42.003Z,99.90
2023-04-05T02:30:21.442Z,99.90
2023-04-05T02:32:54.277Z,99.90
2023-04-05T02:35:34.520Z,99.90
2023-04-05T02:38:07.350Z,99.90
2023-04-05T02:40:52.097Z,99.90
2023-04-05T02:43:26.318Z,99.90
2023-04-05T02:46:04.003Z,99.90
2023-04-05T02:48:39.712Z,99.90
2023-04-05T02:51:18.457Z,99.90
2023-04-05T02:53:49.041Z,99.90
2023-04-05T02:56:23.810Z,99.90
2023-04-05T02:59:06.820Z,99.90
2023-04-05T03:01:49.835Z,99.90
2023-04-05T03:04:31.137Z,99.90
2023-04-05T03:07:05.736Z,99.90
2023-04-05T03:09:55.478Z,99.90
2023-04-05T03:12:39.850Z,99.90
2023-04-05T03:15:12.444Z,99.90
2023-04-05T03:17:51.222Z,99.90
2023-04-05T03:20:29.460Z,99.90
2023-04-05T03:23:06.739Z,99.90
2023-04-05T03:25:46.690Z,99.90
2023-04-05T03:28:22.223Z,99.90
2023-04-05T03:30:59.551Z,99.90
2023-04-05T03:33:27.656Z,99.90
2023-04-05T03:35:58.245Z,99.90
2023-04-05T03:38:32.549Z,99.90
2023-04-05T03:41:14.481Z,99.90
2023-04-05T03:43:44.658Z,99.90
2023-04-05T03:46:13.767Z,99.90
2023-04-05T03:48:43.201Z,99.90
2023-04-05T03:51:17.259Z,99.90
2023-04-05T03:53:45.742Z,99.90
2023-04-05T03:56:22.542Z,99.90
2023-04-05T03:58:59.545Z,99.90
2023-04-05T04:01:44.658Z,99.90
2023-04-05T04:04:18.648Z,99.90
2023-04-05T04:09:39.668Z,99.90
2023-04-05T04:12:13.411Z,99.90
2023-04-05T04:14:59.432Z,99.90
2023-04-05T04:17:51.112Z,99.90
2023-04-05T04:20:41.534Z,99.90
2023-04-05T04:23:34.980Z,99.90
2023-04-05T04:26:29.673Z,99.90
2023-04-05T04:29:21.372Z,99.90
2023-04-05T04:32:29.244Z,99.90
2023-04-05T04:35:27.279Z,99.90
2023-04-05T04:38:50.272Z,99.90
2023-04-05T04:41:59.481Z,99.90
2023-04-05T04:44:50.358Z,99.90
2023-04-05T04:47:49.370Z,99.90
2023-04-05T04:50:19.951Z,99.90
2023-04-05T04:52:50.896Z,99.90
2023-04-05T04:55:35.287Z,99.90
2023-04-05T04:58:10.118Z,99.90
2023-04-05T05:01:01.441Z,99.90
2023-04-05T05:03:48.523Z,99.90
2023-04-05T05:07:00.131Z,99.90
2023-04-05T05:09:52.022Z,99.90
2023-04-05T05:12:48.990Z,99.90
2023-04-05T05:15:30.154Z,99.90
2023-04-05T05:18:20.852Z,99.90
2023-04-05T05:21:04.298Z,99.90
2023-04-05T05:24:09.626Z,99.90
2023-04-05T05:29:44.174Z,99.90
2023-04-05T05:32:18.829Z,99.90
2023-04-05T05:35:01.675Z,99.90
2023-04-05T05:41:50.489Z,99.90
2023-04-05T05:44:36.917Z,99.90
2023-04-05T05:53:54.228Z,99.90
2023-04-05T05:57:26.280Z,99.90
2023-04-05T06:00:35.225Z,99.90
2023-04-05T06:03:07.487Z,99.90
2023-04-05T06:06:21.155Z,99.90
2023-04-05T06:09:04.224Z,99.90
2023-04-05T06:11:59.280Z,99.90
2023-04-05T06:14:33.151Z,99.90
2023-04-05T06:17:13.885Z,99.90
2023-04-05T06:19:54.642Z,99.90
2023-04-05T06:22:34.052Z,99.90
2023-04-05T06:25:13.842Z,99.90
2023-04-05T06:29:07.090Z,99.90
2023-04-05T06:31:38.268Z,98.50
2023-04-05T06:34:06.457Z,99.30
2023-04-05T06:36:38.948Z,99.20
2023-04-05T06:39:09.570Z,98.60
2023-04-05T06:41:39.836Z,97.70
2023-04-05T06:44:11.548Z,98.10
2023-04-05T06:46:48.209Z,97.10
2023-04-05T06:50:16.715Z,97.50
2023-04-05T06:59:28.350Z,97.40
2023-04-05T07:02:36.188Z,96.00
2023-04-05T07:05:17.654Z,96.90
2023-04-05T07:08:46.048Z,96.40
2023-04-05T07:11:22.007Z,96.80
2023-04-05T07:16:56.950Z,94.50
2023-04-05T07:20:21.920Z,90.60
2023-04-05T07:22:57.105Z,89.10
2023-04-05T07:25:36.900Z,86.00
2023-04-05T07:28:21.504Z,84.60
2023-04-05T07:30:58.107Z,85.90
2023-04-05T07:33:28.642Z,86.40
2023-04-05T07:35:57.217Z,86.10
2023-04-05T07:38:33.794Z,84.00
2023-04-05T07:44:14.316Z,84.20
2023-04-05T07:46:46.864Z,84.10
2023-04-05T07:49:17.535Z,82.70
2023-04-05T07:51:46.470Z,81.60
2023-04-05T07:54:14.293Z,80.60
2023-04-05T07:56:42.574Z,79.50
2023-04-05T07:59:10.484Z,79.70
2023-04-05T08:01:39.066Z,79.90
2023-04-05T08:04:09.439Z,78.20
2023-04-05T08:06:40.793Z,80.70
2023-04-05T08:09:11.257Z,76.30
2023-04-05T08:11:39.077Z,75.30
2023-04-05T08:14:07.090Z,76.10
2023-04-05T08:16:35.841Z,74.90
2023-04-05T08:19:03.496Z,76.70
2023-04-05T08:21:31.755Z,75.70
2023-04-05T08:24:00.203Z,77.70
2023-04-05T08:26:27.790Z,76.30
2023-04-05T08:28:55.445Z,75.60
2023-04-05T08:31:23.137Z,78.30
2023-04-05T08:33:50.881Z,76.40
2023-04-05T08:36:18.478Z,75.20
2023-04-05T08:38:46.142Z,76.20
2023-04-05T08:41:23.061Z,76.50
2023-04-05T08:43:59.946Z,75.20
2023-04-05T08:46:27.897Z,74.30
2023-04-05T08:48:56.755Z,74.90
2023-04-05T08:51:26.309Z,74.20
2023-04-05T08:53:54.223Z,73.10
2023-04-05T08:56:26.818Z,74.20
2023-04-05T08:59:06.065Z,70.80
2023-04-05T09:01:38.152Z,70.60
2023-04-05T09:04:31.265Z,68.50
2023-04-05T09:07:01.463Z,70.50
2023-04-05T09:09:35.978Z,67.90
2023-04-05T09:12:08.134Z,69.50
2023-04-05T09:14:38.004Z,71.90
2023-04-05T09:17:06.611Z,66.80
2023-04-05T09:19:34.243Z,67.20
2023-04-05T09:22:07.151Z,69.20
2023-04-05T09:24:43.888Z,67.20
2023-04-05T09:27:17.313Z,68.00
2023-04-05T09:29:48.729Z,68.20
2023-04-05T09:32:19.354Z,68.80
2023-04-05T09:34:48.063Z,63.80
2023-04-05T09:37:23.273Z,65.40
2023-04-05T09:40:01.725Z,65.80
2023-04-05T09:42:43.964Z,66.30
2023-04-05T09:45:12.057Z,71.30
2023-04-05T09:47:59.965Z,63.60
2023-04-05T09:50:27.600Z,62.00
2023-04-05T09:53:26.516Z,64.30
2023-04-05T09:55:54.303Z,67.90
2023-04-05T09:58:22.674Z,66.10
2023-04-05T10:01:06.232Z,67.10
2023-04-05T10:03:49.244Z,67.40
2023-04-05T10:06:17.696Z,67.70
2023-04-05T10:08:47.882Z,68.80
2023-04-05T10:11:18.697Z,66.80
2023-04-05T10:13:47.035Z,68.20
2023-04-05T10:16:20.474Z,67.90
2023-04-05T10:18:52.054Z,61.50
2023-04-05T10:21:27.438Z,62.30
2023-04-05T10:24:21.121Z,61.20
2023-04-05T10:26:57.825Z,61.10
2023-04-05T10:29:49.237Z,60.10
2023-04-05T10:32:43.771Z,59.70
2023-04-05T10:35:21.529Z,61.80
2023-04-05T10:38:04.721Z,61.80
2023-04-05T10:40:34.150Z,64.30
2023-04-05T10:43:04.256Z,64.60
2023-04-05T10:45:34.517Z,65.00
2023-04-05T10:48:18.345Z,62.60
2023-04-05T10:50:48.678Z,60.90
2023-04-05T10:53:17.050Z,62.20
2023-04-05T10:55:46.135Z,63.60
2023-04-05T10:58:19.834Z,58.60
2023-04-05T11:00:49.589Z,64.40
2023-04-05T11:03:46.995Z,59.00
2023-04-05T11:06:29.652Z,64.90
2023-04-05T11:09:09.229Z,62.90
2023-04-05T11:11:41.376Z,59.00
2023-04-05T11:14:23.611Z,60.40
2023-04-05T11:16:59.926Z,62.40
2023-04-05T11:19:43.171Z,56.40
2023-04-05T11:22:11.278Z,57.40
2023-04-05T11:25:06.449Z,62.00
2023-04-05T11:27:42.989Z,61.80
2023-04-05T11:30:58.069Z,61.40
2023-04-05T11:33:42.740Z,62.10
2023-04-05T11:36:11.245Z,59.10
2023-04-05T11:38:41.073Z,60.20
2023-04-05T11:41:17.857Z,60.60
2023-04-05T11:43:47.636Z,60.80
2023-04-05T11:46:19.214Z,60.50
2023-04-05T11:48:51.197Z,60.20
2023-04-05T11:51:22.968Z,59.70
2023-04-05T11:53:50.746Z,55.00
2023-04-05T11:56:20.197Z,61.00
2023-04-05T11:58:47.918Z,60.70
2023-04-05T12:01:15.964Z,57.70
2023-04-05T12:03:43.735Z,60.80
2023-04-05T12:06:11.461Z,59.50
2023-04-05T12:08:56.218Z,59.40
2023-04-05T12:11:30.487Z,58.40
2023-04-05T12:13:59.963Z,57.70
2023-04-05T12:16:29.144Z,59.90
2023-04-05T12:18:58.857Z,57.40
2023-04-05T12:21:27.957Z,59.00
2023-04-05T12:23:55.941Z,59.40
2023-04-05T12:26:24.078Z,60.30
2023-04-05T12:29:00.307Z,64.50
2023-04-05T12:31:45.535Z,62.10
2023-04-05T12:34:14.942Z,63.20
2023-04-05T12:36:46.679Z,63.60
2023-04-05T12:39:16.685Z,62.50
2023-04-05T12:41:44.463Z,62.00
2023-04-05T12:44:16.382Z,64.60
2023-04-05T12:46:45.873Z,60.60
2023-04-05T12:49:18.025Z,62.10
2023-04-05T12:51:46.841Z,61.60
2023-04-05T12:54:24.375Z,60.50
2023-04-05T12:56:54.492Z,60.90
2023-04-05T12:59:23.093Z,60.60
2023-04-05T13:01:51.552Z,59.30
2023-04-05T13:04:19.344Z,63.30
2023-04-05T13:06:47.822Z,60.60
2023-04-05T13:09:15.840Z,58.50
2023-04-05T13:11:43.453Z,60.20
2023-04-05T13:14:11.155Z,60.90
2023-04-05T13:16:38.874Z,59.60
2023-04-05T13:19:06.486Z,61.40
2023-04-05T13:21:34.142Z,60.80
2023-04-05T13:24:01.756Z,59.80
2023-04-05T13:26:29.634Z,62.10
2023-04-05T13:28:57.304Z,59.40
2023-04-05T13:31:24.998Z,61.40
2023-04-05T13:33:52.662Z,60.20
2023-04-05T13:36:20.414Z,57.70
2023-04-05T13:38:47.987Z,61.00
2023-04-05T13:41:16.285Z,61.40
2023-04-05T13:43:43.954Z,61.00
2023-04-05T13:46:11.835Z,61.10
2023-04-05T13:48:39.435Z,61.20
2023-04-05T13:51:07.098Z,63.80
2023-04-05T13:53:34.857Z,60.50
2023-04-05T13:56:02.452Z,60.30
2023-04-05T13:58:30.034Z,60.40
2023-04-05T14:00:57.661Z,61.80
2023-04-05T14:03:26.065Z,62.30
2023-04-05T14:05:55.392Z,60.90
2023-04-05T14:08:23.314Z,61.10
2023-04-05T14:10:51.523Z,62.20
2023-04-05T14:13:19.168Z,61.90
2023-04-05T14:15:46.969Z,63.10
2023-04-05T14:18:14.782Z,62.70
2023-04-05T14:20:42.863Z,62.80
2023-04-05T14:36:20.943Z,62.20
2023-04-05T14:38:48.630Z,63.00
2023-04-05T14:41:16.370Z,60.40
2023-04-05T14:43:44.069Z,61.30
2023-04-05T14:46:11.870Z,62.60
2023-04-05T14:48:39.551Z,63.30
2023-04-05T14:51:07.303Z,62.30
2023-04-05T14:53:35.046Z,61.80
2023-04-05T14:56:03.077Z,64.00
2023-04-05T14:58:30.841Z,63.60
2023-04-05T15:00:58.594Z,63.60
2023-04-05T15:03:26.503Z,64.20
2023-04-05T15:05:54.598Z,63.70
2023-04-05T15:08:22.325Z,63.30
2023-04-05T15:10:50.283Z,62.90
2023-04-05T15:13:20.892Z,64.90
2023-04-05T15:15:48.542Z,63.70
2023-04-05T15:18:16.222Z,62.20
2023-04-05T15:20:44.017Z,63.80
2023-04-05T15:23:11.802Z,64.40
2023-04-05T15:25:39.523Z,64.90
2023-04-05T15:28:07.383Z,64.80
2023-04-05T15:30:36.150Z,64.60
2023-04-05T15:33:04.252Z,64.20
2023-04-05T15:35:33.535Z,66.10
2023-04-05T15:38:01.824Z,65.90
2023-04-05T15:40:29.457Z,65.70
2023-04-05T15:42:57.172Z,66.80
2023-04-05T15:45:24.922Z,66.70
2023-04-05T15:47:52.703Z,67.20
2023-04-05T15:50:20.550Z,66.20
2023-04-05T15:52:48.496Z,67.20
2023-04-05T15:55:16.388Z,66.80
2023-04-05T15:57:44.141Z,66.20
2023-04-05T16:00:12.602Z,66.50
2023-04-05T16:02:40.481Z,66.50
2023-04-05T16:05:08.557Z,67.60
2023-04-05T16:07:36.416Z,67.10
2023-04-05T16:10:04.734Z,68.00
2023-04-05T16:12:32.422Z,67.80
2023-04-05T16:15:00.178Z,67.90
2023-04-05T16:17:28.077Z,67.90
2023-04-05T16:19:57.200Z,67.90
2023-04-05T16:22:25.864Z,68.00
2023-04-05T16:24:56.061Z,67.90
2023-04-05T16:27:23.869Z,68.40
2023-04-05T16:29:51.549Z,68.10
2023-04-05T16:32:19.299Z,68.10
2023-04-05T16:34:46.984Z,68.50
2023-04-05T16:37:14.652Z,69.20
2023-04-05T16:39:44.835Z,70.00
2023-04-05T16:42:12.712Z,69.40
2023-04-05T16:44:40.419Z,69.80
2023-04-05T16:47:08.258Z,69.50
2023-04-05T16:49:36.801Z,69.50
2023-04-05T16:52:04.518Z,69.40
2023-04-05T16:54:32.222Z,69.10
2023-04-05T16:56:59.958Z,69.10
2023-04-05T16:59:27.691Z,69.30
2023-04-05T17:01:55.813Z,69.40
2023-04-05T17:04:23.541Z,70.00
2023-04-05T17:06:51.709Z,70.80
2023-04-05T17:09:19.984Z,70.10
2023-04-05T17:11:47.968Z,69.90
2023-04-05T17:14:16.114Z,69.80
2023-04-05T17:16:43.904Z,70.80
2023-04-05T17:19:11.780Z,70.10
2023-04-05T17:21:39.955Z,70.30
2023-04-05T17:24:07.992Z,71.20
2023-04-05T17:26:35.928Z,71.70
2023-04-05T17:29:04.886Z,71.40
2023-04-05T17:31:33.563Z,71.50
2023-04-05T17:34:01.750Z,71.50
2023-04-05T17:36:33.460Z,72.30
2023-04-05T17:39:01.160Z,72.40
2023-04-05T17:41:28.848Z,72.30
2023-04-05T17:43:56.671Z,72.10
2023-04-05T17:46:34.088Z,73.20
2023-04-05T17:49:08.694Z,74.20
2023-04-05T17:51:42.279Z,75.00
2023-04-05T17:54:12.396Z,74.60
2023-04-05T17:56:40.442Z,75.40
2023-04-05T17:59:08.366Z,76.50
2023-04-05T18:01:37.923Z,78.10
2023-04-05T18:04:06.330Z,78.50
2023-04-05T18:06:35.891Z,79.60
2023-04-05T18:09:05.681Z,79.50
2023-04-05T18:11:33.591Z,79.70
2023-04-05T18:14:01.226Z,81.60
2023-04-05T18:16:29.482Z,82.80
2023-04-05T18:18:57.366Z,83.10
2023-04-05T18:21:25.081Z,84.10
2023-04-05T18:23:54.139Z,84.10
2023-04-05T18:26:21.987Z,84.80
2023-04-05T18:28:59.860Z,85.40
2023-04-05T18:31:29.253Z,85.70
2023-04-05T18:33:57.309Z,86.40
2023-04-05T18:36:25.920Z,86.70
2023-04-05T18:38:55.734Z,87.50
2023-04-05T18:41:23.498Z,89.50
2023-04-05T18:43:54.720Z,88.00
2023-04-05T18:46:23.548Z,88.60
2023-04-05T18:48:54.828Z,90.00
2023-04-05T18:51:24.002Z,91.00
2023-04-05T18:53:51.680Z,91.10
2023-04-05T18:56:19.318Z,90.10
2023-04-05T18:58:47.243Z,92.80
2023-04-05T19:01:16.193Z,93.10
2023-04-05T19:03:45.345Z,93.00
2023-04-05T19:06:13.654Z,92.80
2023-04-05T19:08:41.386Z,92.70
2023-04-05T19:11:13.252Z,93.00
2023-04-05T19:13:42.233Z,93.30
2023-04-05T19:16:10.095Z,94.00
2023-04-05T19:18:37.791Z,97.00
2023-04-05T19:21:08.135Z,94.70
2023-04-05T19:23:36.764Z,95.20
2023-04-05T19:26:04.473Z,95.20
2023-04-05T19:28:32.194Z,94.70
2023-04-05T19:31:00.405Z,94.60
2023-04-05T19:33:31.717Z,94.10
2023-04-05T19:36:02.842Z,97.00
2023-04-05T19:38:39.344Z,98.50
2023-04-05T19:41:14.962Z,98.40
2023-04-05T19:43:56.475Z,98.00
2023-04-05T19:46:54.472Z,98.50
2023-04-05T19:52:50.496Z,97.90
2023-04-05T19:55:34.273Z,98.30
2023-04-05T19:58:06.580Z,99.90
2023-04-05T20:00:43.732Z,99.90
2023-04-05T20:03:30.209Z,98.30
2023-04-05T20:06:10.908Z,98.00
2023-04-05T20:08:44.878Z,98.00
2023-04-05T20:11:13.839Z,98.20
2023-04-05T20:13:53.304Z,98.70
2023-04-05T20:16:29.630Z,99.50
2023-04-05T20:19:01.587Z,99.70
2023-04-05T20:21:29.491Z,99.00
2023-04-05T20:23:59.109Z,99.30
2023-04-05T20:26:29.104Z,99.00
2023-04-05T20:29:07.310Z,99.40
2023-04-05T20:31:39.984Z,99.30
2023-04-05T20:34:15.312Z,99.00
2023-04-05T20:36:57.180Z,99.10
2023-04-05T20:39:29.538Z,99.90
2023-04-05T20:41:57.545Z,99.30
2023-04-05T20:44:25.973Z,99.60
2023-04-05T20:46:56.403Z,99.70
2023-04-05T20:49:26.547Z,99.90
2023-04-05T20:51:55.829Z,99.90
2023-04-05T20:54:24.269Z,99.90
2023-04-05T20:56:52.475Z,99.90
2023-04-05T20:59:20.182Z,99.90
2023-04-05T21:01:49.098Z,99.90
2023-04-05T21:04:17.037Z,99.90
2023-04-05T21:06:44.704Z,99.90
2023-04-05T21:09:12.401Z,99.90
2023-04-05T21:11:40.060Z,99.90
2023-04-05T21:14:07.779Z,99.90
2023-04-05T21:16:35.667Z,99.90
2023-04-05T21:19:03.404Z,99.90
2023-04-05T21:21:31.355Z,99.90
2023-04-05T21:23:59.001Z,99.90
2023-04-05T21:26:26.667Z,99.90
2023-04-05T21:28:54.352Z,99.90
2023-04-05T21:31:22.101Z,99.90
2023-04-05T21:33:49.705Z,99.90
2023-04-05T21:36:17.451Z,99.90
2023-04-05T21:38:45.249Z,99.90
2023-04-05T21:41:12.976Z,99.90
2023-04-05T21:43:40.669Z,99.90
2023-04-05T21:46:08.300Z,99.90
2023-04-05T21:48:36.041Z,99.90
2023-04-05T21:51:03.742Z,99.90
2023-04-05T21:53:31.809Z,99.90
2023-04-05T21:55:59.464Z,99.90
2023-04-05T21:58:27.288Z,99.90
2023-04-05T22:00:55.038Z,99.90
2023-04-05T22:03:22.840Z,99.90
2023-04-05T22:05:50.506Z,99.90
2023-04-05T22:08:18.155Z,99.90
2023-04-05T22:10:46.055Z,99.90
2023-04-05T22:13:13.742Z,99.90
2023-04-05T22:15:41.450Z,99.90
2023-04-05T22:18:09.262Z,99.90
2023-04-05T22:20:37.031Z,99.90
2023-04-05T22:23:04.779Z,99.90
2023-04-05T22:25:32.410Z,99.90
2023-04-05T22:28:00.656Z,99.90
2023-04-05T22:30:37.196Z,99.90
2023-04-05T22:33:13.155Z,99.90
2023-04-05T22:35:41.847Z,99.90
2023-04-05T22:38:09.741Z,99.90
2023-04-05T22:40:37.362Z,99.90
2023-04-05T22:43:05.042Z,99.90
2023-04-05T22:45:32.773Z,99.90
2023-04-05T22:48:00.518Z,99.90
2023-04-05T22:50:28.188Z,99.90
2023-04-05T22:52:55.968Z,99.90
2023-04-05T22:55:23.667Z,99.90
2023-04-05T22:57:51.740Z,99.90
2023-04-05T23:00:19.498Z,99.90
2023-04-05T23:02:47.187Z,99.90
2023-04-05T23:05:14.979Z,99.90
2023-04-05T23:07:42.585Z,99.90
2023-04-05T23:10:10.568Z,99.90
2023-04-05T23:12:38.172Z,99.90
2023-04-05T23:15:06.638Z,99.90
2023-04-05T23:17:34.387Z,99.90
2023-04-05T23:20:02.194Z,99.90
2023-04-05T23:22:29.828Z,99.90
2023-04-05T23:25:00.702Z,99.90
2023-04-05T23:27:28.602Z,99.90
2023-04-05T23:29:56.257Z,99.90
2023-04-05T23:32:24.519Z,99.90
2023-04-05T23:34:53.096Z,99.90
2023-04-05T23:37:20.883Z,99.90
2023-04-05T23:39:48.554Z,99.90
2023-04-05T23:42:16.554Z,99.90
2023-04-05T23:44:44.240Z,99.90
2023-04-05T23:47:11.925Z,99.90
2023-04-05T23:49:39.536Z,99.90
2023-04-05T23:52:07.307Z,99.90
2023-04-05T23:54:35.001Z,99.90
2023-04-05T23:57:02.763Z,99.90
2023-04-05T23:59:31.044Z,99.90
